createdAt,value
2023-01-19T00:01:31.711Z,-2.00
2023-01-19T00:03:59.842Z,-2.00
2023-01-19T00:06:27.988Z,-2.00
2023-01-19T00:08:56.066Z,-2.10
2023-01-19T00:11:24.200Z,-2.00
2023-01-19T00:13:53.752Z,-2.00
2023-01-19T00:16:23.383Z,-2.00
2023-01-19T00:18:53.146Z,-2.10
2023-01-19T00:21:22.638Z,-2.10
2023-01-19T00:23:52.805Z,-2.10
2023-01-19T00:26:22.792Z,-2.00
2023-01-19T00:28:51.083Z,-2.00
2023-01-19T00:31:21.749Z,-1.90
2023-01-19T00:33:51.639Z,-1.90
2023-01-19T00:36:20.573Z,-1.90
2023-01-19T00:38:48.691Z,-1.90
2023-01-19T00:41:16.904Z,-1.90
2023-01-19T00:43:44.041Z,-1.90
2023-01-19T00:46:12.187Z,-2.00
2023-01-19T00:48:41.723Z,-2.10
2023-01-19T00:51:09.764Z,-2.20
2023-01-19T00:53:37.805Z,-2.20
2023-01-19T00:56:06.401Z,-2.30
2023-01-19T00:58:34.465Z,-2.30
2023-01-19T01:01:04.804Z,-2.30
2023-01-19T01:03:33.067Z,-2.30
2023-01-19T01:06:03.690Z,-2.30
2023-01-19T01:08:31.823Z,-2.30
2023-01-19T01:10:59.887Z,-2.30
2023-01-19T01:13:29.439Z,-2.30
2023-01-19T01:15:58.286Z,-2.30
2023-01-19T01:18:27.070Z,-2.30
2023-01-19T01:21:03.454Z,-2.40
2023-01-19T01:23:31.562Z,-2.40
2023-01-19T01:25:59.640Z,-2.40
2023-01-19T01:28:28.078Z,-2.50
2023-01-19T01:30:57.543Z,-2.50
2023-01-19T01:33:41.395Z,-2.50
2023-01-19T01:36:12.260Z,-2.50
2023-01-19T01:38:40.677Z,-2.60
2023-01-19T01:41:09.678Z,-2.60
2023-01-19T01:43:47.578Z,-2.60
2023-01-19T01:46:17.394Z,-2.60
2023-01-19T01:48:51.283Z,-2.60
2023-01-19T01:51:26.810Z,-2.60
2023-01-19T01:54:09.537Z,-2.60
2023-01-19T01:56:39.978Z,-2.50
2023-01-19T01:59:11.975Z,-2.40
2023-01-19T02:01:58.153Z,-2.40
2023-01-19T02:04:27.953Z,-2.30
2023-01-19T02:07:14.896Z,-2.20
2023-01-19T02:10:00.653Z,-2.10
2023-01-19T02:12:47.050Z,-2.10
2023-01-19T02:15:17.759Z,-2.00
2023-01-19T02:17:45.925Z,-2.00
2023-01-19T02:20:14.353Z,-2.00
2023-01-19T02:22:49.836Z,-1.80
2023-01-19T02:25:21.158Z,-1.80
2023-01-19T02:27:50.158Z,-1.80
2023-01-19T02:30:19.001Z,-1.80
2023-01-19T02:32:47.176Z,-1.80
2023-01-19T02:35:15.467Z,-1.80
2023-01-19T02:37:45.327Z,-1.70
2023-01-19T02:40:16.062Z,-1.80
2023-01-19T02:42:49.088Z,-1.80
2023-01-19T02:45:23.035Z,-1.90
2023-01-19T02:47:53.412Z,-1.80
2023-01-19T02:50:43.720Z,-1.80
2023-01-19T02:53:34.157Z,-1.70
2023-01-19T02:56:18.457Z,-1.80
2023-01-19T02:58:54.553Z,-1.80
2023-01-19T03:01:30.007Z,-1.90
2023-01-19T03:04:01.894Z,-1.90
2023-01-19T03:06:44.719Z,-2.00
2023-01-19T03:09:20.999Z,-2.00
2023-01-19T03:12:03.390Z,-2.00
2023-01-19T03:14:37.065Z,-2.00
2023-01-19T03:17:07.981Z,-2.10
2023-01-19T03:19:39.262Z,-2.10
2023-01-19T03:22:11.714Z,-2.10
2023-01-19T03:24:43.341Z,-2.20
2023-01-19T03:27:15.453Z,-2.10
2023-01-19T03:29:51.949Z,-2.10
2023-01-19T03:32:23.287Z,-2.10
2023-01-19T03:34:53.240Z,-2.10
2023-01-19T03:37:24.096Z,-2.10
2023-01-19T03:39:52.225Z,-2.10
2023-01-19T03:42:21.431Z,-2.10
2023-01-19T03:44:53.670Z,-2.00
2023-01-19T03:47:22.742Z,-2.10
2023-01-19T03:49:52.942Z,-2.00
2023-01-19T03:52:28.755Z,-2.00
2023-01-19T03:54:57.056Z,-2.00
2023-01-19T03:57:25.224Z,-2.00
2023-01-19T03:59:54.775Z,-1.90
2023-01-19T04:02:22.859Z,-1.90
2023-01-19T04:04:51.201Z,-1.90
2023-01-19T04:07:19.275Z,-1.90
2023-01-19T04:09:47.284Z,-1.90
2023-01-19T04:12:15.664Z,-1.90
2023-01-19T04:14:43.639Z,-1.90
2023-01-19T04:17:13.047Z,-1.90
2023-01-19T04:19:41.061Z,-1.90
2023-01-19T04:22:09.213Z,-1.90
2023-01-19T04:24:37.330Z,-1.80
2023-01-19T04:27:05.355Z,-1.90
2023-01-19T04:29:33.364Z,-1.80
2023-01-19T04:32:01.421Z,-1.80
2023-01-19T04:34:30.792Z,-1.80
2023-01-19T04:36:58.812Z,-1.80
2023-01-19T04:39:27.536Z,-1.80
2023-01-19T04:41:57.465Z,-1.80
2023-01-19T04:44:25.459Z,-1.70
2023-01-19T04:46:53.666Z,-1.70
2023-01-19T04:49:21.668Z,-1.70
2023-01-19T04:51:53.701Z,-1.60
2023-01-19T04:54:21.875Z,-1.60
2023-01-19T04:56:49.957Z,-1.70
2023-01-19T04:59:18.044Z,-1.60
2023-01-19T05:01:46.093Z,-1.60
2023-01-19T05:04:14.149Z,-1.50
2023-01-19T05:06:42.196Z,-1.50
2023-01-19T05:09:15.252Z,-1.40
2023-01-19T05:11:43.379Z,-1.30
2023-01-19T05:14:11.641Z,-1.30
2023-01-19T05:16:39.688Z,-1.30
2023-01-19T05:19:07.817Z,-1.30
2023-01-19T05:21:35.835Z,-1.30
2023-01-19T05:24:04.144Z,-1.20
2023-01-19T05:26:33.588Z,-1.20
2023-01-19T05:29:02.051Z,-1.20
2023-01-19T05:31:30.263Z,-1.20
2023-01-19T05:33:58.426Z,-1.10
2023-01-19T05:36:27.175Z,-1.10
2023-01-19T05:38:55.196Z,-1.10
2023-01-19T05:41:23.287Z,-1.10
2023-01-19T05:43:52.639Z,-1.10
2023-01-19T05:46:20.648Z,-1.10
2023-01-19T05:48:48.657Z,-1.00
2023-01-19T05:51:16.756Z,-1.00
2023-01-19T05:53:44.765Z,-1.00
2023-01-19T05:56:13.063Z,-1.00
2023-01-19T05:58:41.255Z,-1.00
2023-01-19T06:01:11.654Z,-0.90
2023-01-19T06:03:41.050Z,-0.90
2023-01-19T06:06:09.344Z,-0.90
2023-01-19T06:08:37.528Z,-0.90
2023-01-19T06:11:07.423Z,-0.90
2023-01-19T06:13:36.000Z,-0.80
2023-01-19T06:16:04.713Z,-0.90
2023-01-19T06:18:34.332Z,-0.90
2023-01-19T06:21:05.447Z,-0.90
2023-01-19T06:23:34.710Z,-0.90
2023-01-19T06:26:02.977Z,-0.80
2023-01-19T06:28:31.215Z,-0.90
2023-01-19T06:30:59.545Z,-0.80
2023-01-19T06:33:28.747Z,-0.90
2023-01-19T06:35:58.194Z,-0.90
2023-01-19T06:38:26.282Z,-0.80
2023-01-19T06:40:58.495Z,-0.80
2023-01-19T06:43:27.278Z,-0.80
2023-01-19T06:45:56.175Z,-0.90
2023-01-19T06:48:25.083Z,-0.90
2023-01-19T06:50:53.077Z,-0.80
2023-01-19T06:53:22.528Z,-0.90
2023-01-19T06:55:50.659Z,-0.80
2023-01-19T06:58:18.962Z,-0.90
2023-01-19T07:00:46.986Z,-0.90
2023-01-19T07:03:21.391Z,-0.90
2023-01-19T07:05:52.704Z,-0.90
2023-01-19T07:08:22.196Z,-0.90
2023-01-19T07:11:23.151Z,-0.90
2023-01-19T07:13:40.532Z,-0.80
2023-01-19T07:16:10.356Z,-1.00
2023-01-19T07:18:38.838Z,-0.90
2023-01-19T07:21:07.917Z,-0.80
2023-01-19T07:23:38.607Z,-0.90
2023-01-19T07:26:06.955Z,-1.00
2023-01-19T07:28:35.123Z,-1.00
2023-01-19T07:31:03.584Z,-1.00
2023-01-19T07:33:31.787Z,-1.00
2023-01-19T07:35:59.888Z,-1.00
2023-01-19T07:38:27.993Z,-0.90
2023-01-19T07:41:02.857Z,-0.90
2023-01-19T07:43:31.289Z,-0.90
2023-01-19T07:46:00.525Z,-0.90
2023-01-19T07:48:29.368Z,-0.90
2023-01-19T07:51:01.063Z,-0.90
2023-01-19T07:53:29.336Z,-0.90
2023-01-19T07:55:57.708Z,-0.90
2023-01-19T07:58:27.597Z,-0.90
2023-01-19T08:00:55.749Z,-0.90
2023-01-19T08:03:24.282Z,-0.90
2023-01-19T08:05:53.942Z,-0.80
2023-01-19T08:08:21.995Z,-0.80
2023-01-19T08:10:51.841Z,-0.80
2023-01-19T08:13:20.115Z,-0.70
2023-01-19T08:15:52.415Z,-0.70
2023-01-19T08:18:21.426Z,-0.70
2023-01-19T08:20:49.477Z,-0.60
2023-01-19T08:23:18.210Z,-0.50
2023-01-19T08:25:46.632Z,-0.40
2023-01-19T08:28:16.293Z,-0.30
2023-01-19T08:30:45.323Z,-0.20
2023-01-19T08:33:15.211Z,0.00
2023-01-19T08:35:44.703Z,0.30
2023-01-19T08:38:12.794Z,0.40
2023-01-19T08:40:42.564Z,0.60
2023-01-19T08:43:12.878Z,0.60
2023-01-19T08:45:42.477Z,0.80
2023-01-19T08:48:10.526Z,1.10
2023-01-19T08:50:40.395Z,1.40
2023-01-19T08:53:08.727Z,1.40
2023-01-19T08:55:38.049Z,1.40
2023-01-19T08:58:08.848Z,1.20
2023-01-19T09:00:39.044Z,1.00
2023-01-19T09:03:08.426Z,1.10
2023-01-19T09:05:39.546Z,1.20
2023-01-19T09:08:11.063Z,1.20
2023-01-19T09:10:40.581Z,1.10
2023-01-19T09:13:10.973Z,1.10
2023-01-19T09:15:39.789Z,1.00
2023-01-19T09:18:10.292Z,1.00
2023-01-19T09:20:39.675Z,1.00
2023-01-19T09:23:07.732Z,1.00
2023-01-19T09:25:35.723Z,0.90
2023-01-19T09:28:04.138Z,0.80
2023-01-19T09:30:33.082Z,0.80
2023-01-19T09:33:06.475Z,0.70
2023-01-19T09:35:34.517Z,0.60
2023-01-19T09:38:04.688Z,0.70
2023-01-19T09:40:33.335Z,0.60
2023-01-19T09:43:14.675Z,0.60
2023-01-19T09:45:49.933Z,0.60
2023-01-19T09:48:30.268Z,0.60
2023-01-19T09:51:01.597Z,0.50
2023-01-19T09:53:43.410Z,0.50
2023-01-19T09:56:14.910Z,0.50
2023-01-19T09:58:43.415Z,0.40
2023-01-19T10:01:44.979Z,0.50
2023-01-19T10:04:33.039Z,0.50
2023-01-19T10:07:11.263Z,0.40
2023-01-19T10:09:52.109Z,0.50
2023-01-19T10:12:34.255Z,0.40
2023-01-19T10:15:07.557Z,0.40
2023-01-19T10:17:44.473Z,0.50
2023-01-19T10:20:20.683Z,0.50
2023-01-19T10:22:50.707Z,0.40
2023-01-19T10:25:24.679Z,0.50
2023-01-19T10:27:52.754Z,0.50
2023-01-19T10:30:24.535Z,0.50
2023-01-19T10:32:53.608Z,0.40
2023-01-19T10:35:25.183Z,0.40
2023-01-19T10:37:57.771Z,0.50
2023-01-19T10:40:36.017Z,0.50
2023-01-19T10:43:40.154Z,0.50
2023-01-19T10:46:15.454Z,0.70
2023-01-19T10:48:44.708Z,0.70
2023-01-19T10:51:13.476Z,0.60
2023-01-19T10:53:43.961Z,0.70
2023-01-19T10:56:18.543Z,0.70
2023-01-19T10:58:46.580Z,0.80
2023-01-19T11:01:18.034Z,0.80
2023-01-19T11:03:46.616Z,0.80
2023-01-19T11:06:23.807Z,0.80
2023-01-19T11:08:53.251Z,0.80
2023-01-19T11:11:24.991Z,0.90
2023-01-19T11:14:10.837Z,0.90
2023-01-19T11:16:40.081Z,0.90
2023-01-19T11:19:25.753Z,1.00
2023-01-19T11:21:55.045Z,1.10
2023-01-19T11:24:24.768Z,1.10
2023-01-19T11:27:03.029Z,1.10
2023-01-19T11:29:32.002Z,1.10
2023-01-19T11:32:12.535Z,1.10
2023-01-19T11:34:40.564Z,1.10
2023-01-19T11:37:28.273Z,1.20
2023-01-19T11:39:58.575Z,1.20
2023-01-19T11:42:32.329Z,1.20
2023-01-19T11:45:05.269Z,1.20
2023-01-19T11:47:40.443Z,1.20
2023-01-19T11:50:16.274Z,1.30
2023-01-19T11:52:47.032Z,1.30
2023-01-19T11:55:20.899Z,1.40
2023-01-19T11:57:54.288Z,1.50
2023-01-19T12:00:31.261Z,1.70
2023-01-19T12:03:06.224Z,1.60
2023-01-19T12:05:37.264Z,1.70
2023-01-19T12:08:10.642Z,1.70
2023-01-19T12:10:43.708Z,1.60
2023-01-19T12:13:21.483Z,1.50
2023-01-19T12:15:52.009Z,1.50
2023-01-19T12:18:23.669Z,1.40
2023-01-19T12:20:53.651Z,1.40
2023-01-19T12:23:43.535Z,1.30
2023-01-19T12:26:32.023Z,1.40
2023-01-19T12:29:05.487Z,1.50
2023-01-19T12:31:33.933Z,1.60
2023-01-19T12:34:37.844Z,1.60
2023-01-19T12:37:08.879Z,1.50
2023-01-19T12:39:48.674Z,1.60
2023-01-19T12:42:21.102Z,1.50
2023-01-19T12:44:53.978Z,1.60
2023-01-19T12:47:24.473Z,1.60
2023-01-19T12:49:56.541Z,1.70
2023-01-19T12:52:34.253Z,1.70
2023-01-19T12:55:07.522Z,1.70
2023-01-19T12:57:39.836Z,1.70
2023-01-19T13:00:30.923Z,1.70
2023-01-19T13:03:00.527Z,1.70
2023-01-19T13:05:58.728Z,1.60
2023-01-19T13:08:29.948Z,1.70
2023-01-19T13:11:23.793Z,1.70
2023-01-19T13:14:35.970Z,1.70
2023-01-19T13:17:25.603Z,1.80
2023-01-19T13:20:15.160Z,1.70
2023-01-19T13:23:18.730Z,1.80
2023-01-19T13:25:52.372Z,1.80
2023-01-19T13:28:24.935Z,1.90
2023-01-19T13:30:57.618Z,1.70
2023-01-19T13:33:30.788Z,1.70
2023-01-19T13:35:59.922Z,1.70
2023-01-19T13:38:29.052Z,1.70
2023-01-19T13:41:00.536Z,1.70
2023-01-19T13:43:33.776Z,1.60
2023-01-19T13:46:03.564Z,1.60
2023-01-19T13:48:34.059Z,1.60
2023-01-19T13:51:05.137Z,1.60
2023-01-19T13:53:34.221Z,1.70
2023-01-19T13:56:11.184Z,1.60
2023-01-19T13:58:39.292Z,1.70
2023-01-19T14:01:08.600Z,1.80
2023-01-19T14:03:37.996Z,1.80
2023-01-19T14:06:06.347Z,1.80
2023-01-19T14:08:34.424Z,1.80
2023-01-19T14:11:04.228Z,1.80
2023-01-19T14:13:34.519Z,1.80
2023-01-19T14:16:07.075Z,1.80
2023-01-19T14:18:37.526Z,1.70
2023-01-19T14:21:20.636Z,1.60
2023-01-19T14:23:50.722Z,1.70
2023-01-19T14:26:41.775Z,1.70
2023-01-19T14:29:22.940Z,1.70
2023-01-19T14:31:52.718Z,1.80
2023-01-19T14:34:37.283Z,1.80
2023-01-19T14:37:07.020Z,1.80
2023-01-19T14:39:36.770Z,1.80
2023-01-19T14:42:07.756Z,1.70
2023-01-19T14:44:38.096Z,1.70
2023-01-19T14:47:07.589Z,1.70
2023-01-19T14:49:41.398Z,1.60
2023-01-19T14:52:22.458Z,1.60
2023-01-19T14:54:51.250Z,1.60
2023-01-19T14:57:19.251Z,1.60
2023-01-19T14:59:50.339Z,1.60
2023-01-19T15:02:19.583Z,1.60
2023-01-19T15:04:49.215Z,1.60
2023-01-19T15:07:20.122Z,1.60
2023-01-19T15:09:48.528Z,1.60
2023-01-19T15:12:18.579Z,1.60
2023-01-19T15:14:46.898Z,1.60
2023-01-19T15:17:25.420Z,1.60
2023-01-19T15:19:57.971Z,1.50
2023-01-19T15:22:29.310Z,1.50
2023-01-19T15:25:00.016Z,1.50
2023-01-19T15:27:28.312Z,1.50
2023-01-19T15:29:56.315Z,1.50
2023-01-19T15:32:24.390Z,1.50
2023-01-19T15:34:52.697Z,1.50
2023-01-19T15:37:22.055Z,1.50
2023-01-19T15:39:50.065Z,1.50
2023-01-19T15:42:18.057Z,1.50
2023-01-19T15:44:46.421Z,1.50
2023-01-19T15:47:14.539Z,1.50
2023-01-19T15:49:42.586Z,1.50
2023-01-19T15:52:10.561Z,1.50
2023-01-19T15:54:39.970Z,1.50
2023-01-19T15:57:08.002Z,1.50
2023-01-19T15:59:36.065Z,1.50
2023-01-19T16:02:05.849Z,1.40
2023-01-19T16:04:34.005Z,1.40
2023-01-19T16:07:02.043Z,1.40
2023-01-19T16:09:30.084Z,1.40
2023-01-19T16:11:59.558Z,1.30
2023-01-19T16:14:27.810Z,1.30
2023-01-19T16:16:55.827Z,1.20
2023-01-19T16:19:23.944Z,1.30
2023-01-19T16:21:52.008Z,1.20
2023-01-19T16:24:20.052Z,1.20
2023-01-19T16:26:48.064Z,1.20
2023-01-19T16:29:17.463Z,1.10
2023-01-19T16:31:45.933Z,1.20
2023-01-19T16:34:14.069Z,1.20
2023-01-19T16:36:43.282Z,1.20
2023-01-19T16:39:14.588Z,1.20
2023-01-19T16:41:43.023Z,1.20
2023-01-19T16:44:12.008Z,1.20
2023-01-19T16:46:44.223Z,1.20
2023-01-19T16:49:14.845Z,1.10
2023-01-19T16:51:43.678Z,1.20
2023-01-19T16:54:14.050Z,1.20
2023-01-19T16:56:42.290Z,1.20
2023-01-19T16:59:13.083Z,1.10
2023-01-19T17:01:44.430Z,1.10
2023-01-19T17:04:12.614Z,1.10
2023-01-19T17:06:41.700Z,1.10
2023-01-19T17:09:10.273Z,1.10
2023-01-19T17:11:40.262Z,1.10
2023-01-19T17:14:11.465Z,0.90
2023-01-19T17:16:39.754Z,1.00
2023-01-19T17:19:10.077Z,1.00
2023-01-19T17:21:38.191Z,0.90
2023-01-19T17:24:06.721Z,1.00
2023-01-19T17:26:34.739Z,0.90
2023-01-19T17:29:04.843Z,1.00
2023-01-19T17:31:33.657Z,0.90
2023-01-19T17:34:02.142Z,1.00
2023-01-19T17:36:33.565Z,1.00
2023-01-19T17:39:05.673Z,1.00
2023-01-19T17:41:35.751Z,0.90
2023-01-19T17:44:05.009Z,0.80
2023-01-19T17:46:35.968Z,0.90
2023-01-19T17:49:06.296Z,0.90
2023-01-19T17:51:36.462Z,0.90
2023-01-19T17:54:04.891Z,0.80
2023-01-19T17:56:36.874Z,0.80
2023-01-19T17:59:07.632Z,0.70
2023-01-19T18:01:38.259Z,0.70
2023-01-19T18:04:07.321Z,0.80
2023-01-19T18:06:37.277Z,0.80
2023-01-19T18:09:06.886Z,0.70
2023-01-19T18:11:35.707Z,0.70
2023-01-19T18:14:03.948Z,0.60
2023-01-19T18:16:32.539Z,0.50
2023-01-19T18:19:00.617Z,0.50
2023-01-19T18:21:30.462Z,0.50
2023-01-19T18:24:04.605Z,0.40
2023-01-19T18:26:34.372Z,0.40
2023-01-19T18:29:02.402Z,0.40
2023-01-19T18:31:30.550Z,0.30
2023-01-19T18:33:58.635Z,0.30
2023-01-19T18:36:28.810Z,0.30
2023-01-19T18:38:56.816Z,0.30
2023-01-19T18:41:26.665Z,0.30
2023-01-19T18:43:58.320Z,0.30
2023-01-19T18:46:27.474Z,0.20
2023-01-19T18:48:55.703Z,0.20
2023-01-19T18:51:23.877Z,0.20
2023-01-19T18:53:51.946Z,0.20
2023-01-19T18:56:20.068Z,0.20
2023-01-19T18:58:49.742Z,0.20
2023-01-19T19:01:21.020Z,0.30
2023-01-19T19:03:49.249Z,0.20
2023-01-19T19:06:20.908Z,0.20
2023-01-19T19:08:50.260Z,0.20
2023-01-19T19:11:18.760Z,0.20
2023-01-19T19:13:46.977Z,0.20
2023-01-19T19:16:16.472Z,0.20
2023-01-19T19:18:44.583Z,0.20
2023-01-19T19:21:14.365Z,0.20
2023-01-19T19:23:42.460Z,0.30
2023-01-19T19:26:12.679Z,0.30
2023-01-19T19:28:41.964Z,0.30
2023-01-19T19:31:12.099Z,0.40
2023-01-19T19:33:42.399Z,0.40
2023-01-19T19:36:12.602Z,0.40
2023-01-19T19:38:42.871Z,0.40
2023-01-19T19:41:13.984Z,0.40
2023-01-19T19:43:42.134Z,0.40
2023-01-19T19:46:12.747Z,0.40
2023-01-19T19:48:42.452Z,0.40
2023-01-19T19:51:18.333Z,0.40
2023-01-19T19:53:51.181Z,0.40
2023-01-19T19:56:21.186Z,0.40
2023-01-19T19:58:50.109Z,0.40
2023-01-19T20:01:19.612Z,0.40
2023-01-19T20:03:49.764Z,0.40
2023-01-19T20:06:21.394Z,0.40
2023-01-19T20:08:50.047Z,0.40
2023-01-19T20:11:21.398Z,0.50
2023-01-19T20:13:50.780Z,0.50
2023-01-19T20:16:20.626Z,0.40
2023-01-19T20:18:54.098Z,0.40
2023-01-19T20:21:24.557Z,0.40
2023-01-19T20:23:53.261Z,0.40
2023-01-19T20:26:25.113Z,0.40
2023-01-19T20:28:53.820Z,0.40
2023-01-19T20:31:24.265Z,0.40
2023-01-19T20:33:56.414Z,0.40
2023-01-19T20:36:24.821Z,0.40
2023-01-19T20:38:53.591Z,0.40
2023-01-19T20:41:22.557Z,0.50
2023-01-19T20:43:50.859Z,0.40
2023-01-19T20:46:19.018Z,0.50
2023-01-19T20:48:50.901Z,0.50
2023-01-19T20:51:20.478Z,0.60
2023-01-19T20:53:49.058Z,0.60
2023-01-19T20:56:17.406Z,0.60
2023-01-19T20:58:45.502Z,0.50
2023-01-19T21:01:15.720Z,0.50
2023-01-19T21:03:44.409Z,0.60
2023-01-19T21:06:13.416Z,0.50
2023-01-19T21:08:43.563Z,0.40
2023-01-19T21:11:13.271Z,0.40
2023-01-19T21:13:41.357Z,0.30
2023-01-19T21:16:09.835Z,0.30
2023-01-19T21:18:38.103Z,0.20
2023-01-19T21:21:07.095Z,0.30
2023-01-19T21:23:37.114Z,0.30
2023-01-19T21:26:07.035Z,0.20
2023-01-19T21:28:35.074Z,0.10
2023-01-19T21:31:08.169Z,0.10
2023-01-19T21:33:36.269Z,0.00
2023-01-19T21:36:04.705Z,-0.10
2023-01-19T21:38:33.304Z,-0.10
2023-01-19T21:41:12.197Z,-0.10
2023-01-19T21:43:42.681Z,-0.10
2023-01-19T21:46:12.708Z,-0.20
2023-01-19T21:48:40.906Z,-0.20
2023-01-19T21:51:09.159Z,-0.40
2023-01-19T21:53:37.242Z,-0.40
2023-01-19T21:56:09.447Z,-0.50
2023-01-19T21:58:37.782Z,-0.50
2023-01-19T22:01:09.846Z,-0.50
2023-01-19T22:03:38.042Z,-0.60
2023-01-19T22:06:06.906Z,-0.60
2023-01-19T22:08:35.398Z,-0.70
2023-01-19T22:11:05.504Z,-0.60
2023-01-19T22:13:35.957Z,-0.60
2023-01-19T22:16:05.360Z,-0.70
2023-01-19T22:18:35.911Z,-0.70
2023-01-19T22:21:10.983Z,-0.70
2023-01-19T22:23:39.465Z,-0.70
2023-01-19T22:26:08.295Z,-0.80
2023-01-19T22:28:40.352Z,-0.90
2023-01-19T22:31:10.723Z,-0.90
2023-01-19T22:33:38.863Z,-1.00
2023-01-19T22:36:15.969Z,-1.00
2023-01-19T22:38:45.252Z,-0.90
2023-01-19T22:41:15.210Z,-0.70
2023-01-19T22:43:45.325Z,-0.70
2023-01-19T22:46:13.709Z,-0.60
2023-01-19T22:48:41.723Z,-0.50
2023-01-19T22:51:10.047Z,-0.40
2023-01-19T22:53:38.331Z,-0.40
2023-01-19T22:56:14.284Z,-0.40
2023-01-19T22:58:45.209Z,-0.50
2023-01-19T23:01:14.856Z,-0.60
2023-01-19T23:03:43.311Z,-0.80
2023-01-19T23:06:13.719Z,-0.90
2023-01-19T23:08:42.175Z,-0.90
2023-01-19T23:11:12.479Z,-1.00
2023-01-19T23:13:40.661Z,-1.00
2023-01-19T23:16:11.205Z,-1.00
2023-01-19T23:18:39.654Z,-0.90
2023-01-19T23:21:09.251Z,-0.80
2023-01-19T23:23:37.590Z,-0.80
2023-01-19T23:26:07.727Z,-0.80
2023-01-19T23:28:36.776Z,-0.60
2023-01-19T23:31:16.421Z,-0.50
2023-01-19T23:33:44.789Z,-0.50
2023-01-19T23:36:13.086Z,-0.40
2023-01-19T23:38:41.778Z,-0.40
2023-01-19T23:41:10.231Z,-0.40
2023-01-19T23:43:38.213Z,-0.30
2023-01-19T23:46:07.411Z,-0.50
2023-01-19T23:48:37.932Z,-0.50
2023-01-19T23:51:09.819Z,-0.50
2023-01-19T23:53:38.091Z,-0.50
2023-01-19T23:56:14.192Z,-0.50
2023-01-19T23:58:42.711Z,-0.50
